Time;durP1;ratioP1;P1;durP2;ratioP2;P2;SDS_P1;SDS_P2;PMS_P1;PMS_P2;Temp;Humidity;BMP_temperature;BMP_pressure;BME280_temperature;BME280_humidity;BME280_pressure;Samples;Min_cycle;Max_cycle;Signal;HPM_P1;HPM_P2
2021/06/22 00:01:04;;;;;;;2.67;1.00;;;;;;;22.89;54.87;99899.66;4923966;28;98425;-76
2021/06/22 00:03:30;;;;;;;2.05;1.13;;;;;;;22.82;54.91;99899.50;4920662;28;105915;-74
2021/06/22 00:05:56;;;;;;;3.05;1.30;;;;;;;22.81;55.52;99895.19;4924713;28;97717;-74
2021/06/22 00:08:23;;;;;;;2.90;1.20;;;;;;;22.87;55.10;99899.22;4923279;28;128189;-77
2021/06/22 00:10:49;;;;;;;2.25;1.08;;;;;;;22.72;55.64;99901.69;4921638;28;99873;-74
2021/06/22 00:13:15;;;;;;;2.72;1.38;;;;;;;22.75;56.05;99908.41;4890115;28;99907;-76
2021/06/22 00:15:41;;;;;;;3.83;1.40;;;;;;;22.63;56.20;99925.03;4905762;28;98017;-76
2021/06/22 00:18:07;;;;;;;2.53;1.63;;;;;;;22.63;56.35;99923.06;4921454;28;114420;-74
2021/06/22 00:20:33;;;;;;;2.75;1.60;;;;;;;22.40;56.95;99939.47;4923632;28;118548;-76
2021/06/22 00:23:00;;;;;;;3.97;1.80;;;;;;;22.53;56.66;99940.94;4939929;28;108792;-74
2021/06/22 00:25:26;;;;;;;2.85;1.60;;;;;;;22.46;56.82;99942.72;4941851;28;97918;-74
2021/06/22 00:27:52;;;;;;;4.15;1.90;;;;;;;22.51;56.91;99951.47;4942547;28;98856;-74
2021/06/22 00:30:19;;;;;;;3.92;1.58;;;;;;;22.59;57.03;99943.38;4941579;28;98906;-75
2021/06/22 00:32:45;;;;;;;2.60;1.67;;;;;;;22.53;57.04;99959.38;4940579;28;98805;-74
2021/06/22 00:35:12;;;;;;;2.67;2.03;;;;;;;22.54;57.16;99958.19;4928145;28;98144;-74
2021/06/22 00:37:39;;;;;;;4.10;1.88;;;;;;;22.50;57.25;99966.34;4905008;28;98208;-74
2021/06/22 00:40:06;;;;;;;3.00;1.90;;;;;;;22.24;57.81;99966.16;4904710;28;98032;-74
2021/06/22 00:42:32;;;;;;;3.03;1.90;;;;;;;22.39;58.07;99965.31;4920091;28;98069;-74
2021/06/22 00:44:59;;;;;;;2.83;1.92;;;;;;;22.45;57.69;99961.16;4942192;28;117666;-75
2021/06/22 00:47:26;;;;;;;2.38;2.08;;;;;;;21.89;58.99;99974.31;4939534;28;110137;-75
2021/06/22 00:49:53;;;;;;;3.35;2.15;;;;;;;22.23;58.35;99975.56;4935630;28;98734;-75
2021/06/22 00:52:25;;;;;;;2.95;2.30;;;;;;;22.13;58.96;99974.16;4907930;28;98046;-75
2021/06/22 00:54:51;;;;;;;3.85;2.15;;;;;;;22.19;59.13;99974.69;4923295;28;97979;-75
2021/06/22 00:57:18;;;;;;;3.53;2.40;;;;;;;22.19;58.92;99969.97;4923831;28;98512;-75
2021/06/22 00:59:45;;;;;;;3.47;2.38;;;;;;;22.14;59.63;99966.72;4922962;28;98652;-75
2021/06/22 01:02:11;;;;;;;4.72;2.90;;;;;;;22.02;59.78;99970.34;4904914;28;97971;-75
2021/06/22 01:04:37;;;;;;;3.72;2.88;;;;;;;21.97;60.21;99970.63;4922106;28;117635;-75
2021/06/22 01:07:04;;;;;;;3.80;3.03;;;;;;;21.90;60.80;99976.72;4922512;28;112973;-75
2021/06/22 01:09:30;;;;;;;3.33;3.00;;;;;;;22.08;60.27;99979.88;4888928;28;100953;-75
2021/06/22 01:11:58;;;;;;;5.78;3.47;;;;;;;22.00;60.69;99989.09;4923124;28;98076;-74
2021/06/22 01:14:25;;;;;;;4.47;3.80;;;;;;;21.89;61.02;99982.56;4920902;28;98032;-74
2021/06/22 01:16:51;;;;;;;3.90;3.60;;;;;;;21.95;61.12;99992.13;4922364;28;98049;-76
2021/06/22 01:19:17;;;;;;;4.43;4.10;;;;;;;21.83;61.73;99993.00;4936111;28;98588;-75
2021/06/22 01:21:43;;;;;;;4.20;3.83;;;;;;;22.04;61.36;99999.00;4941307;28;126269;-75
2021/06/22 01:24:12;;;;;;;4.78;4.32;;;;;;;22.07;61.21;100005.75;4942675;28;97803;-74
2021/06/22 01:26:45;;;;;;;4.55;4.15;;;;;;;22.06;61.38;100010.44;4941982;28;97934;-75
2021/06/22 01:29:12;;;;;;;5.32;4.53;;;;;;;21.97;61.78;100020.81;4940799;28;98969;-75
2021/06/22 01:31:38;;;;;;;4.70;4.30;;;;;;;21.99;61.60;100015.75;4941908;28;118501;-74
2021/06/22 01:34:04;;;;;;;5.85;4.78;;;;;;;21.59;62.91;100017.84;4935216;28;105541;-75
2021/06/22 01:36:32;;;;;;;5.07;4.63;;;;;;;21.94;62.03;100015.22;4919896;28;128107;-75
2021/06/22 01:38:58;;;;;;;4.97;4.57;;;;;;;21.79;62.07;100017.59;4904406;28;99072;-75
2021/06/22 01:41:24;;;;;;;4.30;3.90;;;;;;;21.88;61.94;100019.38;4921919;28;126710;-75
2021/06/22 01:43:50;;;;;;;4.82;4.43;;;;;;;21.81;62.31;100019.97;4921667;28;115694;-74
2021/06/22 01:46:17;;;;;;;6.22;4.78;;;;;;;21.52;62.79;100027.47;4903799;28;128915;-75
2021/06/22 01:48:43;;;;;;;6.00;5.40;;;;;;;21.68;62.52;100040.41;4904509;28;111647;-74
2021/06/22 01:51:09;;;;;;;5.97;5.47;;;;;;;21.39;63.31;100044.34;4919798;28;98583;-74
2021/06/22 01:53:36;;;;;;;7.35;5.63;;;;;;;21.62;62.47;100053.59;4920782;28;97804;-74
2021/06/22 01:56:02;;;;;;;6.90;6.03;;;;;;;21.60;62.31;100052.34;4903084;28;127596;-74
2021/06/22 01:58:28;;;;;;;7.75;6.30;;;;;;;21.59;61.95;100069.94;4921505;28;99167;-75
2021/06/22 02:00:57;;;;;;;7.05;6.43;;;;;;;21.35;62.37;100079.88;4921627;28;97976;-74
2021/06/22 02:03:26;;;;;;;7.65;6.35;;;;;;;21.33;62.43;100079.41;4934408;28;98151;-74
2021/06/22 02:05:52;;;;;;;7.15;6.47;;;;;;;21.53;62.00;100092.13;4939179;28;107154;-75
2021/06/22 02:08:18;;;;;;;7.40;6.60;;;;;;;21.51;62.01;100091.69;4937245;28;116293;-75
2021/06/22 02:10:45;;;;;;;8.50;6.75;;;;;;;20.95;62.73;100107.28;4922396;28;98441;-75
2021/06/22 02:13:11;;;;;;;7.85;7.13;;;;;;;21.38;61.97;100109.34;4939813;28;97919;-75
2021/06/22 02:15:38;;;;;;;7.70;6.90;;;;;;;21.27;62.02;100113.69;4942042;28;98225;-75
2021/06/22 02:18:05;;;;;;;7.45;6.75;;;;;;;21.44;61.96;100124.38;4941076;28;97630;-74
2021/06/22 02:20:31;;;;;;;7.97;6.95;;;;;;;21.50;61.47;100125.75;4941727;28;98325;-74
2021/06/22 02:22:57;;;;;;;8.32;7.35;;;;;;;21.19;61.95;100126.38;4939239;28;117924;-74
2021/06/22 02:25:23;;;;;;;8.10;7.28;;;;;;;21.19;61.77;100133.81;4938756;28;127142;-74
2021/06/22 02:27:49;;;;;;;9.77;7.43;;;;;;;21.35;61.67;100126.47;4938534;28;126626;-74
2021/06/22 02:30:19;;;;;;;7.53;6.82;;;;;;;21.43;61.46;100132.97;4940362;28;127929;-74
2021/06/22 02:32:45;;;;;;;7.57;6.88;;;;;;;21.42;61.43;100140.41;4931403;28;97986;-75
2021/06/22 02:35:13;;;;;;;8.63;7.38;;;;;;;21.37;61.78;100140.63;4920376;28;126903;-75
2021/06/22 02:37:40;;;;;;;7.47;6.78;;;;;;;21.22;61.96;100142.16;4903363;28;98615;-74
2021/06/22 02:40:08;;;;;;;8.02;6.85;;;;;;;21.23;61.88;100143.72;4922066;28;97926;-74
2021/06/22 02:42:34;;;;;;;7.93;7.18;;;;;;;21.31;61.74;100144.75;4921758;28;97967;-74
2021/06/22 02:45:00;;;;;;;8.73;7.30;;;;;;;21.18;62.27;100146.72;4918126;28;128682;-74
2021/06/22 02:47:26;;;;;;;8.93;8.10;;;;;;;21.14;62.09;100145.00;4920489;28;126974;-75
2021/06/22 02:49:52;;;;;;;8.43;7.55;;;;;;;21.19;62.19;100151.06;4918654;28;126275;-75
2021/06/22 02:52:18;;;;;;;8.43;7.63;;;;;;;21.20;62.56;100144.41;4903155;28;116599;-74
2021/06/22 02:54:45;;;;;;;8.02;7.22;;;;;;;20.81;62.81;100148.69;4920533;28;127913;-75
2021/06/22 02:57:11;;;;;;;8.60;7.78;;;;;;;20.77;63.85;100153.28;4918561;28;114300;-75
2021/06/22 02:59:38;;;;;;;9.13;8.23;;;;;;;20.64;64.31;100155.22;4902584;28;127599;-74
2021/06/22 03:02:06;;;;;;;9.25;8.25;;;;;;;20.73;63.85;100153.16;4922485;28;98016;-74
2021/06/22 03:04:32;;;;;;;8.20;7.32;;;;;;;21.02;63.10;100151.28;4903279;28;98663;-74
2021/06/22 03:06:59;;;;;;;8.40;7.60;;;;;;;20.95;63.33;100157.38;4921622;28;98227;-74
2021/06/22 03:09:25;;;;;;;9.55;8.32;;;;;;;20.79;63.86;100170.16;4885959;28;107161;-75
2021/06/22 03:11:52;;;;;;;9.23;8.15;;;;;;;21.06;63.51;100165.91;4906753;28;98086;-74
2021/06/22 03:14:19;;;;;;;10.30;8.30;;;;;;;21.07;63.47;100167.50;4906592;28;97960;-75
2021/06/22 03:16:45;;;;;;;9.20;8.30;;;;;;;20.90;63.87;100168.53;4925250;28;98197;-75
2021/06/22 03:19:12;;;;;;;10.13;9.02;;;;;;;20.87;64.36;100169.25;4905731;28;127201;-75
2021/06/22 03:21:42;;;;;;;10.13;9.18;;;;;;;20.77;64.73;100166.97;4906879;28;98223;-74
2021/06/22 03:24:11;;;;;;;10.70;9.57;;;;;;;20.76;64.77;100170.84;4924532;28;98754;-75
2021/06/22 03:26:38;;;;;;;10.63;9.20;;;;;;;20.80;64.81;100171.75;4924349;28;120260;-74
2021/06/22 03:29:04;;;;;;;10.98;9.35;;;;;;;20.88;64.50;100173.59;4929343;28;126429;-75
2021/06/22 03:31:30;;;;;;;10.68;9.30;;;;;;;20.65;65.39;100180.66;4926200;28;97917;-74
2021/06/22 03:33:56;;;;;;;10.52;9.27;;;;;;;20.86;64.80;100178.59;4944177;28;97736;-74
2021/06/22 03:36:22;;;;;;;10.55;9.45;;;;;;;20.77;64.84;100188.88;4942791;28;98065;-75
2021/06/22 03:38:49;;;;;;;10.80;9.70;;;;;;;20.89;64.72;100202.56;4928787;28;100945;-75
2021/06/22 03:41:15;;;;;;;9.88;8.88;;;;;;;20.88;64.74;100202.91;4922581;28;97998;-74
2021/06/22 03:43:41;;;;;;;11.50;8.68;;;;;;;20.95;65.31;100203.94;4921828;28;103278;-74
2021/06/22 03:46:07;;;;;;;11.38;9.40;;;;;;;20.28;66.48;100202.47;4906344;28;106024;-74
2021/06/22 03:48:35;;;;;;;10.98;9.30;;;;;;;20.45;66.46;100207.75;4905911;28;99742;-73
2021/06/22 03:51:02;;;;;;;9.63;8.70;;;;;;;20.67;65.61;100203.00;4922739;28;97840;-76
2021/06/22 03:53:28;;;;;;;11.55;9.68;;;;;;;20.69;65.92;100211.69;4923974;28;98775;-75
2021/06/22 03:55:54;;;;;;;10.32;9.13;;;;;;;20.68;66.05;100210.09;4905397;28;104970;-74
2021/06/22 03:58:20;;;;;;;11.50;10.10;;;;;;;20.51;66.33;100217.34;4936990;28;98160;-75
2021/06/22 04:00:46;;;;;;;10.65;9.00;;;;;;;20.72;65.97;100206.34;4925739;28;98023;-74
2021/06/22 04:03:13;;;;;;;11.13;9.43;;;;;;;20.71;65.79;100195.69;4941231;28;98736;-76
2021/06/22 04:05:39;;;;;;;10.05;9.05;;;;;;;20.59;65.84;100182.81;4925585;28;98610;-73
2021/06/22 04:08:06;;;;;;;10.40;8.85;;;;;;;20.66;66.26;100184.97;4942466;28;126152;-73
2021/06/22 04:10:32;;;;;;;10.40;8.85;;;;;;;20.57;66.48;100185.09;4944075;28;97814;-73
2021/06/22 04:12:58;;;;;;;12.05;10.38;;;;;;;20.25;67.62;100186.75;4942873;28;127731;-73
2021/06/22 04:15:24;;;;;;;12.10;10.05;;;;;;;20.38;66.86;100195.75;4925235;28;98449;-73
2021/06/22 04:17:50;;;;;;;10.85;9.82;;;;;;;20.33;66.97;100199.53;4941025;28;119493;-73
2021/06/22 04:20:17;;;;;;;11.43;10.25;;;;;;;19.99;67.88;100209.66;4940482;28;117137;-73
2021/06/22 04:22:43;;;;;;;11.18;10.02;;;;;;;20.22;66.94;100220.25;4923502;28;98271;-75
2021/06/22 04:25:11;;;;;;;10.65;9.60;;;;;;;19.92;68.35;100231.28;4923799;28;98528;-73
2021/06/22 04:27:37;;;;;;;12.27;10.60;;;;;;;19.48;69.22;100240.94;4905423;28;99044;-73
2021/06/22 04:30:07;;;;;;;10.80;9.75;;;;;;;19.89;68.52;100247.59;4920864;28;118054;-73
2021/06/22 04:32:33;;;;;;;10.98;9.05;;;;;;;19.94;68.04;100258.31;4900743;28;98274;-75
2021/06/22 04:34:59;;;;;;;10.10;9.07;;;;;;;19.81;68.24;100262.94;4904452;28;98626;-75
2021/06/22 04:37:25;;;;;;;10.23;9.13;;;;;;;19.94;68.00;100269.25;4920115;28;127940;-75
2021/06/22 04:39:51;;;;;;;9.98;8.90;;;;;;;19.96;67.58;100275.97;4904401;28;120204;-72
2021/06/22 04:42:17;;;;;;;10.90;9.15;;;;;;;19.71;68.32;100286.00;4934340;28;127538;-74
2021/06/22 04:44:43;;;;;;;9.48;8.57;;;;;;;19.69;68.39;100293.75;4924568;28;98002;-75
2021/06/22 04:47:09;;;;;;;10.45;9.32;;;;;;;19.87;67.69;100299.88;4942439;28;98701;-72
2021/06/22 04:49:35;;;;;;;10.35;8.32;;;;;;;19.95;67.39;100299.00;4924391;28;118630;-74
2021/06/22 04:52:02;;;;;;;9.82;8.52;;;;;;;19.91;67.21;100295.34;4923753;28;128914;-75
2021/06/22 04:54:28;;;;;;;11.95;9.00;;;;;;;19.84;67.70;100295.06;4931024;28;109655;-74
2021/06/22 04:56:54;;;;;;;11.77;9.25;;;;;;;19.99;70.11;100290.94;4922851;28;122829;-70
2021/06/22 04:59:20;;;;;;;13.25;9.45;;;;;;;19.90;70.66;100288.28;4921096;28;97974;-76
2021/06/22 05:01:46;;;;;;;10.88;9.43;;;;;;;19.80;71.24;100286.72;4922267;28;127610;-76
2021/06/22 05:04:12;;;;;;;10.93;9.82;;;;;;;19.73;69.93;100282.91;4921361;28;98456;-70
2021/06/22 05:06:39;;;;;;;12.07;9.32;;;;;;;19.93;71.15;100273.16;4905153;28;97932;-70
2021/06/22 05:09:05;;;;;;;10.90;9.77;;;;;;;19.76;70.97;100285.78;4923010;28;98098;-70
2021/06/22 05:11:31;;;;;;;12.23;10.65;;;;;;;19.48;71.85;100296.41;4922078;28;128030;-70
2021/06/22 05:13:57;;;;;;;12.73;10.45;;;;;;;19.30;72.91;100305.84;4921297;28;126889;-76
2021/06/22 05:16:23;;;;;;;11.95;9.90;;;;;;;19.20;73.44;100298.81;4921668;28;127632;-75
2021/06/22 05:18:50;;;;;;;14.07;10.43;;;;;;;19.44;72.29;100291.94;4922445;28;118642;-71
2021/06/22 05:21:16;;;;;;;13.52;11.43;;;;;;;19.29;72.70;100287.84;4923039;28;97923;-75
2021/06/22 05:23:42;;;;;;;12.75;11.45;;;;;;;19.23;72.91;100292.69;4920710;28;127930;-75
2021/06/22 05:26:08;;;;;;;13.52;10.98;;;;;;;19.27;73.16;100284.66;4921564;28;127519;-75
2021/06/22 05:28:34;;;;;;;14.00;11.88;;;;;;;19.22;71.95;100282.91;4921716;28;117112;-77
2021/06/22 05:31:00;;;;;;;12.02;10.65;;;;;;;19.37;72.35;100276.88;4931145;28;125863;-76
2021/06/22 05:33:26;;;;;;;12.77;11.45;;;;;;;19.05;73.81;100256.47;4922538;28;126170;-71
2021/06/22 05:35:52;;;;;;;12.77;11.13;;;;;;;19.26;72.42;100242.88;4941928;28;99046;-71
2021/06/22 05:38:18;;;;;;;12.18;10.98;;;;;;;19.36;72.34;100249.88;4941234;28;117716;-72
2021/06/22 05:40:44;;;;;;;14.30;11.25;;;;;;;19.26;72.58;100258.47;4941094;28;111450;-75
2021/06/22 05:43:10;;;;;;;13.15;11.70;;;;;;;18.89;73.02;100269.88;4923526;28;128066;-71
2021/06/22 05:45:37;;;;;;;13.50;10.88;;;;;;;19.16;72.91;100280.69;4940907;28;126266;-72
2021/06/22 05:48:03;;;;;;;12.55;11.10;;;;;;;19.12;72.51;100277.81;4940624;28;97758;-75
2021/06/22 05:50:29;;;;;;;12.38;9.88;;;;;;;19.23;72.89;100286.44;4901829;28;120792;-71
2021/06/22 05:52:56;;;;;;;12.20;10.27;;;;;;;19.33;72.44;100295.03;4920213;28;107896;-75
2021/06/22 05:55:22;;;;;;;11.65;10.10;;;;;;;19.28;73.17;100303.44;4921835;28;98241;-75
2021/06/22 05:57:53;;;;;;;14.95;10.68;;;;;;;18.78;74.98;100306.84;4920650;28;97989;-75
2021/06/22 06:00:22;;;;;;;12.63;10.35;;;;;;;18.89;73.67;100313.56;4921321;28;98349;-75
2021/06/22 06:02:49;;;;;;;12.20;10.30;;;;;;;18.69;73.37;100310.72;4919736;28;98708;-75
2021/06/22 06:05:16;;;;;;;11.10;9.88;;;;;;;19.01;73.36;100318.34;4920601;28;98079;-71
2021/06/22 06:07:42;;;;;;;11.98;9.82;;;;;;;18.92;73.87;100319.50;4922751;28;98089;-71
2021/06/22 06:10:09;;;;;;;11.80;9.85;;;;;;;18.90;73.69;100317.09;4920984;28;117958;-75
2021/06/22 06:12:35;;;;;;;11.63;9.38;;;;;;;19.10;73.01;100323.78;4921472;28;99035;-76
2021/06/22 06:15:01;;;;;;;12.82;9.40;;;;;;;19.21;73.97;100314.06;4921783;28;98059;-75
2021/06/22 06:17:27;;;;;;;10.80;9.15;;;;;;;19.24;73.33;100304.44;4922773;28;97994;-73
2021/06/22 06:19:53;;;;;;;9.18;7.68;;;;;;;19.35;72.27;100298.25;4903664;28;126828;-71
2021/06/22 06:22:20;;;;;;;8.60;7.57;;;;;;;19.36;71.74;100299.06;4921912;28;98502;-75
2021/06/22 06:24:46;;;;;;;10.90;8.20;;;;;;;19.30;72.39;100298.47;4919502;28;99230;-72
2021/06/22 06:27:23;;;;;;;8.90;7.82;;;;;;;19.27;72.63;100299.09;4920953;28;119556;-72
2021/06/22 06:32:15;;;;;;;8.40;7.53;;;;;;;19.08;73.02;100301.44;4930314;28;105545;-75
2021/06/22 06:34:42;;;;;;;9.68;7.40;;;;;;;19.24;71.76;100291.56;4937638;28;125897;-71
2021/06/22 06:37:08;;;;;;;7.25;6.10;;;;;;;19.38;71.80;100300.34;4941944;28;97943;-71
2021/06/22 06:39:34;;;;;;;7.55;6.68;;;;;;;19.47;71.65;100299.50;4924102;28;127450;-76
2021/06/22 06:42:00;;;;;;;9.73;6.78;;;;;;;19.60;71.85;100307.44;4920912;28;126996;-76
2021/06/22 06:44:26;;;;;;;9.10;7.53;;;;;;;19.02;71.98;100313.69;4920378;28;127210;-71
2021/06/22 06:46:52;;;;;;;8.18;6.10;;;;;;;19.37;73.02;100314.31;4923685;28;116283;-70
2021/06/22 06:49:18;;;;;;;7.28;6.57;;;;;;;19.37;72.00;100301.47;4941383;28;126197;-75
2021/06/22 06:51:44;;;;;;;6.50;5.78;;;;;;;19.67;71.30;100300.66;4941911;28;126603;-76
2021/06/22 06:54:10;;;;;;;6.80;5.70;;;;;;;19.72;71.13;100297.72;4943826;28;127611;-75
2021/06/22 06:56:36;;;;;;;5.80;5.20;;;;;;;19.75;71.57;100300.59;4944409;28;107435;-76
2021/06/22 06:59:03;;;;;;;6.50;5.32;;;;;;;19.47;71.47;100299.50;4944218;28;98319;-75
2021/06/22 07:01:29;;;;;;;6.32;4.85;;;;;;;19.21;72.18;100305.88;4943069;28;126087;-76
2021/06/22 07:03:55;;;;;;;5.13;4.63;;;;;;;19.58;72.23;100304.22;4943756;28;98287;-75
2021/06/22 07:06:21;;;;;;;4.63;4.07;;;;;;;19.56;72.10;100295.56;4943469;28;97877;-71
2021/06/22 07:08:48;;;;;;;5.72;4.18;;;;;;;19.64;71.46;100293.13;4943703;28;126777;-71
2021/06/22 07:11:16;;;;;;;5.07;3.85;;;;;;;19.73;72.03;100299.31;4925859;28;116122;-71
2021/06/22 07:13:42;;;;;;;5.88;4.10;;;;;;;19.56;72.24;100300.22;4943604;28;97664;-71
2021/06/22 07:16:08;;;;;;;4.90;4.38;;;;;;;19.43;72.68;100299.34;4941634;28;118832;-75
2021/06/22 07:18:34;;;;;;;5.10;4.60;;;;;;;19.66;72.15;100297.16;4942941;28;127160;-72
2021/06/22 07:21:00;;;;;;;4.75;4.22;;;;;;;19.68;72.13;100305.00;4934917;28;118258;-75
2021/06/22 07:23:27;;;;;;;4.30;3.90;;;;;;;19.78;72.27;100299.16;4905828;28;128084;-71
2021/06/22 07:25:53;;;;;;;5.65;4.50;;;;;;;19.62;71.77;100304.41;4906355;28;98053;-76
2021/06/22 07:28:19;;;;;;;5.32;4.78;;;;;;;19.64;72.76;100306.81;4922489;28;106480;-76
2021/06/22 07:30:45;;;;;;;4.57;4.13;;;;;;;19.58;73.24;100306.19;4924749;28;116761;-71
2021/06/22 07:33:11;;;;;;;4.97;4.47;;;;;;;19.41;73.38;100306.25;4922000;28;97898;-75
2021/06/22 07:35:37;;;;;;;5.55;5.05;;;;;;;19.33;73.70;100300.50;4924067;28;117776;-76
2021/06/22 07:38:04;;;;;;;5.05;4.47;;;;;;;19.55;73.43;100310.34;4905247;28;128764;-76
2021/06/22 07:40:30;;;;;;;4.97;4.53;;;;;;;19.57;73.34;100304.56;4923744;28;98102;-75
2021/06/22 07:42:56;;;;;;;5.55;4.75;;;;;;;19.45;73.75;100304.47;4904993;28;128034;-71
2021/06/22 07:45:23;;;;;;;5.00;4.50;;;;;;;19.59;73.00;100305.03;4923226;28;98015;-75
2021/06/22 07:47:49;;;;;;;5.20;4.70;;;;;;;19.07;73.07;100305.31;4922498;28;97891;-71
2021/06/22 07:50:15;;;;;;;5.00;4.50;;;;;;;19.42;73.19;100313.34;4906573;28;98526;-71
2021/06/22 07:52:42;;;;;;;6.55;4.75;;;;;;;19.37;73.30;100320.59;4922333;28;127322;-71
2021/06/22 07:55:13;;;;;;;5.18;3.83;;;;;;;19.49;73.25;100325.38;4922428;28;98474;-71
2021/06/22 07:57:42;;;;;;;4.90;4.40;;;;;;;19.38;73.35;100324.13;4923557;28;98328;-77
2021/06/22 08:00:19;;;;;;;5.13;4.65;;;;;;;19.63;73.08;100327.06;4890123;28;98213;-71
2021/06/22 08:02:45;;;;;;;4.28;3.83;;;;;;;19.74;72.70;100331.81;4922851;28;98371;-71
2021/06/22 08:05:11;;;;;;;4.90;4.38;;;;;;;19.81;72.55;100334.84;4923748;28;118768;-71
2021/06/22 08:07:38;;;;;;;5.13;4.60;;;;;;;19.52;73.42;100348.50;4921249;28;98337;-71
2021/06/22 08:10:04;;;;;;;5.85;5.25;;;;;;;19.43;72.49;100348.53;4921107;28;120414;-75
2021/06/22 08:12:30;;;;;;;5.88;5.38;;;;;;;19.44;73.04;100349.34;4929741;28;112202;-77
2021/06/22 08:14:56;;;;;;;6.05;5.45;;;;;;;19.67;73.73;100339.75;4940512;28;116751;-74
2021/06/22 08:17:22;;;;;;;6.32;5.38;;;;;;;19.73;73.22;100356.75;4924070;28;127004;-75
2021/06/22 08:19:48;;;;;;;6.10;5.50;;;;;;;19.74;73.21;100364.63;4933392;28;98727;-79
2021/06/22 08:22:14;;;;;;;5.95;5.45;;;;;;;19.39;73.23;100366.72;4904700;28;128510;-79
2021/06/22 08:24:40;;;;;;;6.45;5.85;;;;;;;19.73;72.98;100373.97;4921308;28;97950;-75
2021/06/22 08:27:07;;;;;;;7.10;6.40;;;;;;;19.42;73.34;100377.00;4923608;28;98785;-75
2021/06/22 08:29:33;;;;;;;7.43;6.45;;;;;;;19.66;73.98;100370.16;4921472;28;127909;-79
2021/06/22 08:31:59;;;;;;;7.38;6.68;;;;;;;19.69;72.66;100385.88;4921073;28;127920;-79
2021/06/22 08:34:25;;;;;;;7.55;6.80;;;;;;;19.75;73.21;100381.84;4906002;28;97877;-80
2021/06/22 08:36:51;;;;;;;9.10;7.53;;;;;;;19.73;72.74;100392.28;4904253;28;128788;-75
2021/06/22 08:39:17;;;;;;;7.82;7.13;;;;;;;19.89;72.79;100396.09;4904836;28;98072;-75
2021/06/22 08:41:43;;;;;;;8.13;7.32;;;;;;;19.88;72.10;100402.66;4907231;28;97895;-75
2021/06/22 08:44:09;;;;;;;8.32;7.53;;;;;;;19.99;71.54;100397.63;4888427;28;117352;-79
2021/06/22 08:46:39;;;;;;;8.48;7.57;;;;;;;19.93;72.60;100404.44;4907601;28;128376;-80
2021/06/22 08:49:05;;;;;;;8.55;7.75;;;;;;;19.83;72.14;100400.13;4923326;28;128331;-75
2021/06/22 08:51:31;;;;;;;8.82;7.97;;;;;;;19.58;73.53;100408.13;4940732;28;97928;-79
2021/06/22 08:53:57;;;;;;;9.07;8.18;;;;;;;19.70;72.94;100401.97;4941278;28;98288;-78
2021/06/22 08:56:25;;;;;;;9.50;8.50;;;;;;;19.71;72.67;100409.03;4907779;28;126975;-75
2021/06/22 08:58:52;;;;;;;9.38;8.48;;;;;;;19.84;72.03;100413.47;4924584;28;98088;-75
2021/06/22 09:01:18;;;;;;;9.68;8.68;;;;;;;19.89;72.19;100412.50;4940881;28;97940;-75
2021/06/22 09:03:45;;;;;;;9.88;8.98;;;;;;;19.99;72.47;100416.75;4932410;28;98168;-75
2021/06/22 09:06:11;;;;;;;10.18;8.80;;;;;;;19.86;72.73;100416.69;4923318;28;98444;-76
2021/06/22 09:08:37;;;;;;;10.38;9.25;;;;;;;19.64;72.83;100421.63;4905122;28;127142;-79
2021/06/22 09:11:11;;;;;;;10.07;9.07;;;;;;;19.65;73.67;100426.78;4888642;28;100645;-78
2021/06/22 09:13:39;;;;;;;11.65;10.55;;;;;;;19.12;74.21;100428.06;4905918;28;97877;-79
2021/06/22 09:16:12;;;;;;;11.32;10.20;;;;;;;19.51;73.58;100428.88;4920629;28;98322;-76
2021/06/22 09:18:41;;;;;;;11.65;10.43;;;;;;;19.52;73.41;100433.22;4905954;28;98717;-77
2021/06/22 09:21:15;;;;;;;12.23;11.02;;;;;;;19.56;73.28;100432.22;4889462;28;98170;-79
2021/06/22 09:23:42;;;;;;;11.75;10.55;;;;;;;19.73;72.21;100431.41;4923633;28;98127;-78
2021/06/22 09:26:10;;;;;;;10.98;9.93;;;;;;;19.64;72.63;100433.34;4904782;28;98008;-76
2021/06/22 09:28:36;;;;;;;11.63;10.45;;;;;;;19.36;73.24;100436.50;4920345;28;97827;-79
2021/06/22 09:31:04;;;;;;;11.73;10.63;;;;;;;19.40;72.53;100424.91;4920633;28;98156;-78
2021/06/22 09:33:40;;;;;;;11.30;10.20;;;;;;;19.46;72.91;100432.63;4904465;28;97984;-79
2021/06/22 09:36:15;;;;;;;10.98;9.90;;;;;;;19.68;72.07;100436.25;4923047;28;98226;-79
2021/06/22 09:38:52;;;;;;;10.80;9.02;;;;;;;19.71;71.26;100430.91;4904383;28;99033;-76
2021/06/22 09:41:30;;;;;;;10.75;9.65;;;;;;;19.65;72.05;100429.50;4909020;28;98658;-79
2021/06/22 09:44:05;;;;;;;10.65;9.60;;;;;;;19.89;71.54;100423.44;4940736;28;98181;-79
2021/06/22 09:46:46;;;;;;;10.27;9.25;;;;;;;19.96;71.59;100415.47;4942583;28;98543;-77
2021/06/22 09:49:13;;;;;;;9.90;8.90;;;;;;;20.03;71.05;100423.97;4924169;28;98257;-79
2021/06/22 09:52:02;;;;;;;10.18;9.18;;;;;;;19.71;71.88;100430.13;4941910;28;97866;-79
2021/06/22 09:54:48;;;;;;;10.18;9.05;;;;;;;19.64;71.57;100433.34;4940482;28;98099;-79
2021/06/22 09:57:19;;;;;;;10.68;9.10;;;;;;;19.75;71.85;100423.66;4926432;28;98361;-76
2021/06/22 09:59:56;;;;;;;9.05;8.15;;;;;;;19.95;71.60;100419.34;4941647;28;98036;-75
2021/06/22 10:02:23;;;;;;;9.75;8.48;;;;;;;19.76;71.22;100418.97;4923962;28;99599;-79
2021/06/22 10:04:55;;;;;;;8.68;7.78;;;;;;;19.83;70.39;100433.75;4907212;28;98478;-80
2021/06/22 10:07:23;;;;;;;8.50;7.63;;;;;;;19.94;70.89;100428.69;4919557;28;99050;-79
2021/06/22 10:10:01;;;;;;;9.32;8.20;;;;;;;19.91;70.55;100429.34;4887979;28;100377;-78
2021/06/22 10:12:29;;;;;;;8.90;8.00;;;;;;;19.99;70.22;100431.25;4920369;28;97965;-76
2021/06/22 10:14:57;;;;;;;9.23;8.32;;;;;;;20.05;69.95;100424.44;4920400;28;97994;-80
2021/06/22 10:17:26;;;;;;;9.65;8.48;;;;;;;20.17;69.46;100428.41;4903883;28;99140;-75
2021/06/22 10:19:58;;;;;;;8.25;7.45;;;;;;;20.42;69.44;100426.59;4903433;28;98496;-76
2021/06/22 10:22:28;;;;;;;7.82;7.10;;;;;;;20.47;68.89;100429.13;4922472;28;97948;-80
2021/06/22 10:24:56;;;;;;;7.25;6.55;;;;;;;20.45;68.48;100434.16;4937965;28;98203;-74
2021/06/22 10:27:23;;;;;;;8.90;8.10;;;;;;;20.10;69.46;100434.41;4938961;28;97961;-80
2021/06/22 10:29:51;;;;;;;8.23;7.32;;;;;;;20.11;69.10;100425.03;4923630;28;97954;-80
2021/06/22 10:32:18;;;;;;;7.63;6.88;;;;;;;20.24;68.49;100436.88;4923179;28;99608;-79
2021/06/22 10:34:46;;;;;;;7.72;6.97;;;;;;;20.38;68.44;100442.88;4922655;28;98065;-76
2021/06/22 10:37:39;;;;;;;7.63;6.55;;;;;;;20.61;67.71;100442.59;4922900;28;98091;-80
2021/06/22 10:40:35;;;;;;;6.85;5.57;;;;;;;20.77;66.45;100447.09;4906166;28;111619;-80
2021/06/22 10:43:02;;;;;;;5.30;4.80;;;;;;;20.90;65.47;100438.94;4939085;28;97967;-80
2021/06/22 10:45:29;;;;;;;5.72;4.82;;;;;;;20.73;66.35;100446.16;4889744;28;110895;-75
2021/06/22 10:47:57;;;;;;;5.65;4.60;;;;;;;20.70;66.52;100446.03;4922801;28;98422;-75
2021/06/22 10:50:23;;;;;;;5.68;5.10;;;;;;;;;;4923416;28;97825;-75
2021/06/22 10:53:09;;;;;;;5.63;5.03;;;;;;;20.35;66.50;100452.56;4941373;28;98051;-75
2021/06/22 10:55:42;;;;;;;5.05;4.60;;;;;;;20.51;66.79;100463.75;4940275;28;97725;-79
2021/06/22 10:58:09;;;;;;;5.25;4.75;;;;;;;20.33;67.08;100467.72;4939711;28;98968;-79
2021/06/22 11:00:38;;;;;;;4.65;4.25;;;;;;;20.41;67.00;100461.38;4939363;28;98408;-75
2021/06/22 11:03:20;;;;;;;5.18;4.68;;;;;;;20.25;68.30;100463.13;4927881;28;98258;-74
2021/06/22 11:05:46;;;;;;;4.32;3.92;;;;;;;20.56;66.77;100462.75;4921560;28;98055;-75
2021/06/22 11:08:15;;;;;;;5.25;4.40;;;;;;;20.58;66.55;100466.75;4885829;28;126046;-80
2021/06/22 11:10:56;;;;;;;4.75;4.10;;;;;;;20.81;66.18;100469.94;4919233;28;98286;-79
2021/06/22 11:13:39;;;;;;;4.82;3.92;;;;;;;20.74;66.09;100468.88;4919402;28;98759;-76
2021/06/22 11:16:25;;;;;;;;;;;;;;;20.85;65.42;100461.84;4920120;28;97962;-75
2021/06/22 11:18:52;;;;;;;4.20;3.60;;;;;;;20.68;66.40;100459.28;4919761;28;98303;-79
2021/06/22 11:21:24;;;;;;;4.03;3.45;;;;;;;20.59;65.75;100460.16;4921143;28;98277;-75
2021/06/22 11:24:15;;;;;;;5.45;3.47;;;;;;;20.47;66.88;100470.19;4919298;28;103645;-75